sensor_id;sensor_type;location;lat;lon;timestamp;temperature;humidity
1337;DHT22;662;48.814;9.318;2023-04-24T00:01:56;13.90;62.50
1337;DHT22;662;48.814;9.318;2023-04-24T00:04:23;13.90;62.00
1337;DHT22;662;48.814;9.318;2023-04-24T00:06:51;13.90;61.90
1337;DHT22;662;48.814;9.318;2023-04-24T00:09:19;13.90;61.70
1337;DHT22;662;48.814;9.318;2023-04-24T00:11:45;13.90;61.80
1337;DHT22;662;48.814;9.318;2023-04-24T00:14:11;13.90;61.90
1337;DHT22;662;48.814;9.318;2023-04-24T00:16:38;13.90;61.70
1337;DHT22;662;48.814;9.318;2023-04-24T00:19:04;13.90;61.30
1337;DHT22;662;48.814;9.318;2023-04-24T00:21:31;13.90;61.30
1337;DHT22;662;48.814;9.318;2023-04-24T00:23:58;13.90;61.70
1337;DHT22;662;48.814;9.318;2023-04-24T00:26:23;13.90;61.50
1337;DHT22;662;48.814;9.318;2023-04-24T00:28:49;13.90;61.10
1337;DHT22;662;48.814;9.318;2023-04-24T00:31:15;14.00;61.40
1337;DHT22;662;48.814;9.318;2023-04-24T00:33:40;13.90;61.40
1337;DHT22;662;48.814;9.318;2023-04-24T00:36:06;13.90;61.50
1337;DHT22;662;48.814;9.318;2023-04-24T00:38:32;13.90;61.40
1337;DHT22;662;48.814;9.318;2023-04-24T00:40:58;13.90;61.30
1337;DHT22;662;48.814;9.318;2023-04-24T00:43:24;13.90;61.40
1337;DHT22;662;48.814;9.318;2023-04-24T00:45:50;13.90;61.20
1337;DHT22;662;48.814;9.318;2023-04-24T00:48:16;13.90;60.70
1337;DHT22;662;48.814;9.318;2023-04-24T00:50:42;14.00;60.70
1337;DHT22;662;48.814;9.318;2023-04-24T00:53:07;14.00;61.00
1337;DHT22;662;48.814;9.318;2023-04-24T00:55:33;14.00;60.70
1337;DHT22;662;48.814;9.318;2023-04-24T00:57:59;14.00;60.60
1337;DHT22;662;48.814;9.318;2023-04-24T01:00:25;14.00;60.40
1337;DHT22;662;48.814;9.318;2023-04-24T01:02:51;14.00;60.10
1337;DHT22;662;48.814;9.318;2023-04-24T01:05:17;14.00;60.00
1337;DHT22;662;48.814;9.318;2023-04-24T01:07:45;14.10;60.00
1337;DHT22;662;48.814;9.318;2023-04-24T01:10:16;14.10;60.00
1337;DHT22;662;48.814;9.318;2023-04-24T01:12:43;14.10;60.10
1337;DHT22;662;48.814;9.318;2023-04-24T01:15:09;14.10;60.10
1337;DHT22;662;48.814;9.318;2023-04-24T01:17:35;14.00;60.00
1337;DHT22;662;48.814;9.318;2023-04-24T01:20:01;14.00;60.10
1337;DHT22;662;48.814;9.318;2023-04-24T01:22:29;14.10;60.40
1337;DHT22;662;48.814;9.318;2023-04-24T01:24:55;14.00;60.40
1337;DHT22;662;48.814;9.318;2023-04-24T01:27:20;14.10;60.40
1337;DHT22;662;48.814;9.318;2023-04-24T01:29:46;14.10;60.00
1337;DHT22;662;48.814;9.318;2023-04-24T01:32:14;14.10;59.90
1337;DHT22;662;48.814;9.318;2023-04-24T01:34:40;14.10;59.90
1337;DHT22;662;48.814;9.318;2023-04-24T01:37:06;14.10;59.90
1337;DHT22;662;48.814;9.318;2023-04-24T01:39:32;14.10;59.70
1337;DHT22;662;48.814;9.318;2023-04-24T01:41:59;14.10;59.50
1337;DHT22;662;48.814;9.318;2023-04-24T01:44:26;14.10;59.60
1337;DHT22;662;48.814;9.318;2023-04-24T01:46:52;14.20;59.90
1337;DHT22;662;48.814;9.318;2023-04-24T01:49:19;14.10;59.60
1337;DHT22;662;48.814;9.318;2023-04-24T01:51:45;14.10;59.60
1337;DHT22;662;48.814;9.318;2023-04-24T01:54:12;14.20;59.70
1337;DHT22;662;48.814;9.318;2023-04-24T01:56:41;14.20;59.70
1337;DHT22;662;48.814;9.318;2023-04-24T01:59:10;14.10;59.50
1337;DHT22;662;48.814;9.318;2023-04-24T02:01:36;14.10;59.60
1337;DHT22;662;48.814;9.318;2023-04-24T02:04:03;14.10;59.70
1337;DHT22;662;48.814;9.318;2023-04-24T02:06:29;14.10;59.70
1337;DHT22;662;48.814;9.318;2023-04-24T02:08:57;14.10;60.00
1337;DHT22;662;48.814;9.318;2023-04-24T02:11:23;14.10;60.00
1337;DHT22;662;48.814;9.318;2023-04-24T02:13:48;14.10;60.10
1337;DHT22;662;48.814;9.318;2023-04-24T02:16:14;14.10;60.60
1337;DHT22;662;48.814;9.318;2023-04-24T02:18:40;14.00;60.50
1337;DHT22;662;48.814;9.318;2023-04-24T02:21:05;14.00;60.60
1337;DHT22;662;48.814;9.318;2023-04-24T02:23:31;14.00;60.60
1337;DHT22;662;48.814;9.318;2023-04-24T02:25:56;13.90;60.30
1337;DHT22;662;48.814;9.318;2023-04-24T02:28:22;13.90;60.60
1337;DHT22;662;48.814;9.318;2023-04-24T02:30:47;13.90;60.70
1337;DHT22;662;48.814;9.318;2023-04-24T02:33:13;13.90;60.70
1337;DHT22;662;48.814;9.318;2023-04-24T02:35:39;13.90;60.80
1337;DHT22;662;48.814;9.318;2023-04-24T02:38:04;13.80;60.80
1337;DHT22;662;48.814;9.318;2023-04-24T02:40:30;13.90;61.10
1337;DHT22;662;48.814;9.318;2023-04-24T02:42:55;13.80;61.00
1337;DHT22;662;48.814;9.318;2023-04-24T02:45:21;13.80;61.00
1337;DHT22;662;48.814;9.318;2023-04-24T02:47:47;13.90;61.30
1337;DHT22;662;48.814;9.318;2023-04-24T02:50:12;13.80;61.30
1337;DHT22;662;48.814;9.318;2023-04-24T02:52:38;13.80;61.40
1337;DHT22;662;48.814;9.318;2023-04-24T02:55:04;13.80;61.40
1337;DHT22;662;48.814;9.318;2023-04-24T02:57:30;13.90;61.70
1337;DHT22;662;48.814;9.318;2023-04-24T02:59:55;13.90;62.60
1337;DHT22;662;48.814;9.318;2023-04-24T03:02:21;13.80;63.00
1337;DHT22;662;48.814;9.318;2023-04-24T03:04:47;13.80;63.90
1337;DHT22;662;48.814;9.318;2023-04-24T03:07:14;13.70;64.60
1337;DHT22;662;48.814;9.318;2023-04-24T03:09:40;13.70;65.10
1337;DHT22;662;48.814;9.318;2023-04-24T03:12:06;13.60;65.20
1337;DHT22;662;48.814;9.318;2023-04-24T03:14:32;13.50;65.40
1337;DHT22;662;48.814;9.318;2023-04-24T03:17:00;13.50;65.60
1337;DHT22;662;48.814;9.318;2023-04-24T03:19:26;13.50;65.70
1337;DHT22;662;48.814;9.318;2023-04-24T03:21:51;13.50;65.80
1337;DHT22;662;48.814;9.318;2023-04-24T03:24:17;13.40;65.70
1337;DHT22;662;48.814;9.318;2023-04-24T03:26:42;13.40;65.90
1337;DHT22;662;48.814;9.318;2023-04-24T03:29:08;13.40;66.20
1337;DHT22;662;48.814;9.318;2023-04-24T03:31:33;13.40;66.20
1337;DHT22;662;48.814;9.318;2023-04-24T03:33:59;13.40;66.30
1337;DHT22;662;48.814;9.318;2023-04-24T03:36:25;13.30;66.00
1337;DHT22;662;48.814;9.318;2023-04-24T03:38:51;13.30;66.10
1337;DHT22;662;48.814;9.318;2023-04-24T03:41:17;13.30;66.10
1337;DHT22;662;48.814;9.318;2023-04-24T03:43:42;13.30;66.40
1337;DHT22;662;48.814;9.318;2023-04-24T03:46:08;13.30;66.40
1337;DHT22;662;48.814;9.318;2023-04-24T03:48:35;13.20;66.30
1337;DHT22;662;48.814;9.318;2023-04-24T03:51:00;13.30;66.50
1337;DHT22;662;48.814;9.318;2023-04-24T03:53:26;13.20;66.40
1337;DHT22;662;48.814;9.318;2023-04-24T03:55:53;13.20;66.50
1337;DHT22;662;48.814;9.318;2023-04-24T03:58:18;13.20;66.50
1337;DHT22;662;48.814;9.318;2023-04-24T04:00:44;13.20;66.50
1337;DHT22;662;48.814;9.318;2023-04-24T04:03:12;13.20;66.40
1337;DHT22;662;48.814;9.318;2023-04-24T04:05:39;13.20;66.30
1337;DHT22;662;48.814;9.318;2023-04-24T04:08:04;13.20;66.50
1337;DHT22;662;48.814;9.318;2023-04-24T04:10:30;13.20;66.60
1337;DHT22;662;48.814;9.318;2023-04-24T04:12:56;13.10;66.70
1337;DHT22;662;48.814;9.318;2023-04-24T04:15:21;13.10;66.70
1337;DHT22;662;48.814;9.318;2023-04-24T04:17:47;13.10;66.90
1337;DHT22;662;48.814;9.318;2023-04-24T04:20:13;13.10;66.90
1337;DHT22;662;48.814;9.318;2023-04-24T04:22:38;13.10;67.10
1337;DHT22;662;48.814;9.318;2023-04-24T04:25:04;13.10;67.20
1337;DHT22;662;48.814;9.318;2023-04-24T04:27:30;13.10;67.40
1337;DHT22;662;48.814;9.318;2023-04-24T04:30:03;13.10;67.40
1337;DHT22;662;48.814;9.318;2023-04-24T04:32:33;13.10;67.30
1337;DHT22;662;48.814;9.318;2023-04-24T04:34:59;13.10;67.40
1337;DHT22;662;48.814;9.318;2023-04-24T04:37:32;13.10;67.60
1337;DHT22;662;48.814;9.318;2023-04-24T04:40:02;13.10;67.70
1337;DHT22;662;48.814;9.318;2023-04-24T04:42:37;13.10;67.00
1337;DHT22;662;48.814;9.318;2023-04-24T04:45:06;13.10;66.70
1337;DHT22;662;48.814;9.318;2023-04-24T04:47:34;13.00;66.60
1337;DHT22;662;48.814;9.318;2023-04-24T04:50:01;13.00;66.40
1337;DHT22;662;48.814;9.318;2023-04-24T04:52:26;13.00;66.60
1337;DHT22;662;48.814;9.318;2023-04-24T04:54:52;13.10;67.10
1337;DHT22;662;48.814;9.318;2023-04-24T04:57:18;13.10;67.10
1337;DHT22;662;48.814;9.318;2023-04-24T04:59:44;13.00;66.10
1337;DHT22;662;48.814;9.318;2023-04-24T05:02:10;13.00;66.10
1337;DHT22;662;48.814;9.318;2023-04-24T05:04:35;13.00;65.20
1337;DHT22;662;48.814;9.318;2023-04-24T05:07:01;13.00;65.40
1337;DHT22;662;48.814;9.318;2023-04-24T05:09:27;12.90;64.60
1337;DHT22;662;48.814;9.318;2023-04-24T05:11:54;13.00;64.70
1337;DHT22;662;48.814;9.318;2023-04-24T05:14:20;12.90;64.70
1337;DHT22;662;48.814;9.318;2023-04-24T05:16:45;12.90;64.80
1337;DHT22;662;48.814;9.318;2023-04-24T05:19:11;12.90;64.80
1337;DHT22;662;48.814;9.318;2023-04-24T05:21:39;12.90;64.60
1337;DHT22;662;48.814;9.318;2023-04-24T05:24:06;12.90;64.80
1337;DHT22;662;48.814;9.318;2023-04-24T05:26:31;13.00;65.00
1337;DHT22;662;48.814;9.318;2023-04-24T05:28:58;13.00;64.90
1337;DHT22;662;48.814;9.318;2023-04-24T05:31:23;12.90;64.40
1337;DHT22;662;48.814;9.318;2023-04-24T05:33:49;12.90;64.40
1337;DHT22;662;48.814;9.318;2023-04-24T05:36:15;12.90;64.40
1337;DHT22;662;48.814;9.318;2023-04-24T05:38:41;13.00;64.50
1337;DHT22;662;48.814;9.318;2023-04-24T05:41:06;13.00;64.30
1337;DHT22;662;48.814;9.318;2023-04-24T05:43:32;13.00;64.00
1337;DHT22;662;48.814;9.318;2023-04-24T05:45:57;13.00;63.90
1337;DHT22;662;48.814;9.318;2023-04-24T05:48:23;13.00;64.10
1337;DHT22;662;48.814;9.318;2023-04-24T05:50:49;13.00;64.00
1337;DHT22;662;48.814;9.318;2023-04-24T05:53:15;13.00;63.70
1337;DHT22;662;48.814;9.318;2023-04-24T05:55:40;13.00;63.70
1337;DHT22;662;48.814;9.318;2023-04-24T05:58:06;13.10;63.90
1337;DHT22;662;48.814;9.318;2023-04-24T06:00:32;13.10;63.50
1337;DHT22;662;48.814;9.318;2023-04-24T06:03:00;13.10;63.30
1337;DHT22;662;48.814;9.318;2023-04-24T06:05:25;13.20;63.50
1337;DHT22;662;48.814;9.318;2023-04-24T06:07:51;13.20;63.50
1337;DHT22;662;48.814;9.318;2023-04-24T06:10:17;13.20;63.30
1337;DHT22;662;48.814;9.318;2023-04-24T06:12:43;13.20;63.30
1337;DHT22;662;48.814;9.318;2023-04-24T06:15:09;13.20;63.40
1337;DHT22;662;48.814;9.318;2023-04-24T06:17:34;13.20;63.30
1337;DHT22;662;48.814;9.318;2023-04-24T06:20:00;13.30;63.30
1337;DHT22;662;48.814;9.318;2023-04-24T06:22:26;13.30;63.10
1337;DHT22;662;48.814;9.318;2023-04-24T06:24:51;13.30;63.10
1337;DHT22;662;48.814;9.318;2023-04-24T06:27:17;13.30;62.20
1337;DHT22;662;48.814;9.318;2023-04-24T06:29:43;13.30;62.10
1337;DHT22;662;48.814;9.318;2023-04-24T06:32:08;13.30;62.20
1337;DHT22;662;48.814;9.318;2023-04-24T06:34:34;13.30;62.20
1337;DHT22;662;48.814;9.318;2023-04-24T06:37:00;13.40;62.30
1337;DHT22;662;48.814;9.318;2023-04-24T06:39:26;13.50;62.30
1337;DHT22;662;48.814;9.318;2023-04-24T06:41:52;13.50;61.60
1337;DHT22;662;48.814;9.318;2023-04-24T06:44:17;13.60;61.40
1337;DHT22;662;48.814;9.318;2023-04-24T06:46:43;13.60;60.80
1337;DHT22;662;48.814;9.318;2023-04-24T06:49:09;13.60;59.50
1337;DHT22;662;48.814;9.318;2023-04-24T06:51:35;13.60;59.30
1337;DHT22;662;48.814;9.318;2023-04-24T06:54:00;13.60;59.60
1337;DHT22;662;48.814;9.318;2023-04-24T06:56:26;13.60;59.70
1337;DHT22;662;48.814;9.318;2023-04-24T06:58:54;13.70;59.90
1337;DHT22;662;48.814;9.318;2023-04-24T07:01:19;13.80;58.70
1337;DHT22;662;48.814;9.318;2023-04-24T07:03:45;13.80;58.70
1337;DHT22;662;48.814;9.318;2023-04-24T07:06:11;13.90;58.60
1337;DHT22;662;48.814;9.318;2023-04-24T07:08:38;14.00;58.60
1337;DHT22;662;48.814;9.318;2023-04-24T07:11:03;14.10;58.20
1337;DHT22;662;48.814;9.318;2023-04-24T07:13:29;14.20;58.50
1337;DHT22;662;48.814;9.318;2023-04-24T07:15:55;14.40;58.60
1337;DHT22;662;48.814;9.318;2023-04-24T07:18:22;14.50;58.50
1337;DHT22;662;48.814;9.318;2023-04-24T07:20:48;14.70;57.40
1337;DHT22;662;48.814;9.318;2023-04-24T07:23:15;14.70;56.60
1337;DHT22;662;48.814;9.318;2023-04-24T07:25:41;14.70;56.00
1337;DHT22;662;48.814;9.318;2023-04-24T07:28:07;14.60;55.40
1337;DHT22;662;48.814;9.318;2023-04-24T07:30:32;14.60;55.70
1337;DHT22;662;48.814;9.318;2023-04-24T07:32:59;14.50;55.80
1337;DHT22;662;48.814;9.318;2023-04-24T07:35:25;14.40;56.00
1337;DHT22;662;48.814;9.318;2023-04-24T07:37:59;14.30;56.40
1337;DHT22;662;48.814;9.318;2023-04-24T07:40:25;14.30;56.90
1337;DHT22;662;48.814;9.318;2023-04-24T07:42:51;14.30;56.90
1337;DHT22;662;48.814;9.318;2023-04-24T07:45:17;14.30;55.40
1337;DHT22;662;48.814;9.318;2023-04-24T07:47:42;14.30;55.40
1337;DHT22;662;48.814;9.318;2023-04-24T07:50:12;14.40;55.50
1337;DHT22;662;48.814;9.318;2023-04-24T07:52:38;14.50;55.70
1337;DHT22;662;48.814;9.318;2023-04-24T07:55:04;14.70;55.80
1337;DHT22;662;48.814;9.318;2023-04-24T07:57:30;14.90;55.70
1337;DHT22;662;48.814;9.318;2023-04-24T07:59:55;15.00;54.30
1337;DHT22;662;48.814;9.318;2023-04-24T08:02:21;15.10;53.20
1337;DHT22;662;48.814;9.318;2023-04-24T08:04:52;15.10;51.80
1337;DHT22;662;48.814;9.318;2023-04-24T08:07:21;15.00;51.40
1337;DHT22;662;48.814;9.318;2023-04-24T08:09:46;15.00;50.10
1337;DHT22;662;48.814;9.318;2023-04-24T08:12:12;15.00;49.40
1337;DHT22;662;48.814;9.318;2023-04-24T08:14:38;15.00;49.30
1337;DHT22;662;48.814;9.318;2023-04-24T08:17:03;15.10;49.10
1337;DHT22;662;48.814;9.318;2023-04-24T08:19:29;15.20;49.00
1337;DHT22;662;48.814;9.318;2023-04-24T08:21:55;15.20;48.60
1337;DHT22;662;48.814;9.318;2023-04-24T08:24:21;15.30;48.50
1337;DHT22;662;48.814;9.318;2023-04-24T08:26:47;15.20;47.50
1337;DHT22;662;48.814;9.318;2023-04-24T08:29:16;15.20;47.80
1337;DHT22;662;48.814;9.318;2023-04-24T08:31:41;15.20;48.30
1337;DHT22;662;48.814;9.318;2023-04-24T08:34:07;15.30;48.40
1337;DHT22;662;48.814;9.318;2023-04-24T08:36:33;15.30;48.20
1337;DHT22;662;48.814;9.318;2023-04-24T08:38:59;15.40;48.10
1337;DHT22;662;48.814;9.318;2023-04-24T08:41:27;15.60;48.00
1337;DHT22;662;48.814;9.318;2023-04-24T08:43:52;15.70;46.70
1337;DHT22;662;48.814;9.318;2023-04-24T08:46:19;15.70;46.10
1337;DHT22;662;48.814;9.318;2023-04-24T08:48:45;15.70;47.20
1337;DHT22;662;48.814;9.318;2023-04-24T08:51:11;15.80;48.60
1337;DHT22;662;48.814;9.318;2023-04-24T08:53:37;15.90;47.10
1337;DHT22;662;48.814;9.318;2023-04-24T08:56:04;16.10;47.00
1337;DHT22;662;48.814;9.318;2023-04-24T08:58:30;16.10;45.20
1337;DHT22;662;48.814;9.318;2023-04-24T09:01:01;16.00;45.20
1337;DHT22;662;48.814;9.318;2023-04-24T09:03:28;15.90;45.80
1337;DHT22;662;48.814;9.318;2023-04-24T09:05:55;15.80;46.40
1337;DHT22;662;48.814;9.318;2023-04-24T09:08:24;15.70;45.90
1337;DHT22;662;48.814;9.318;2023-04-24T09:10:51;15.70;46.00
1337;DHT22;662;48.814;9.318;2023-04-24T09:13:18;15.60;45.90
1337;DHT22;662;48.814;9.318;2023-04-24T09:15:44;15.40;45.50
1337;DHT22;662;48.814;9.318;2023-04-24T09:18:10;15.40;46.40
1337;DHT22;662;48.814;9.318;2023-04-24T09:20:59;15.40;46.80
1337;DHT22;662;48.814;9.318;2023-04-24T09:23:27;15.30;47.00
1337;DHT22;662;48.814;9.318;2023-04-24T09:25:57;15.20;47.00
1337;DHT22;662;48.814;9.318;2023-04-24T09:28:32;15.10;47.10
1337;DHT22;662;48.814;9.318;2023-04-24T09:33:31;14.90;47.90
1337;DHT22;662;48.814;9.318;2023-04-24T09:35:56;14.80;48.60
1337;DHT22;662;48.814;9.318;2023-04-24T09:41:02;14.80;49.50
1337;DHT22;662;48.814;9.318;2023-04-24T09:43:29;14.80;49.50
1337;DHT22;662;48.814;9.318;2023-04-24T09:45:59;14.60;49.80
1337;DHT22;662;48.814;9.318;2023-04-24T09:48:34;14.50;50.60
1337;DHT22;662;48.814;9.318;2023-04-24T09:51:01;14.30;50.90
1337;DHT22;662;48.814;9.318;2023-04-24T09:53:28;14.30;51.20
1337;DHT22;662;48.814;9.318;2023-04-24T09:55:54;14.40;51.40
1337;DHT22;662;48.814;9.318;2023-04-24T09:58:27;14.50;51.30
1337;DHT22;662;48.814;9.318;2023-04-24T10:00:54;15.10;51.50
1337;DHT22;662;48.814;9.318;2023-04-24T10:03:20;15.70;50.80
1337;DHT22;662;48.814;9.318;2023-04-24T10:05:46;16.00;49.80
1337;DHT22;662;48.814;9.318;2023-04-24T10:08:12;16.00;48.40
1337;DHT22;662;48.814;9.318;2023-04-24T10:10:43;15.90;48.20
1337;DHT22;662;48.814;9.318;2023-04-24T10:13:10;16.20;48.00
1337;DHT22;662;48.814;9.318;2023-04-24T10:15:36;16.30;46.90
1337;DHT22;662;48.814;9.318;2023-04-24T10:18:04;16.30;45.60
1337;DHT22;662;48.814;9.318;2023-04-24T10:20:32;16.30;46.10
1337;DHT22;662;48.814;9.318;2023-04-24T10:22:58;16.30;45.50
1337;DHT22;662;48.814;9.318;2023-04-24T10:25:26;16.20;45.00
1337;DHT22;662;48.814;9.318;2023-04-24T10:27:53;16.20;44.50
1337;DHT22;662;48.814;9.318;2023-04-24T10:30:23;16.30;45.00
1337;DHT22;662;48.814;9.318;2023-04-24T10:32:48;17.10;44.00
1337;DHT22;662;48.814;9.318;2023-04-24T10:35:15;18.10;42.60
1337;DHT22;662;48.814;9.318;2023-04-24T10:37:46;18.70;41.30
1337;DHT22;662;48.814;9.318;2023-04-24T10:40:18;18.80;38.70
1337;DHT22;662;48.814;9.318;2023-04-24T10:42:47;18.50;38.00
1337;DHT22;662;48.814;9.318;2023-04-24T10:45:17;18.20;39.00
1337;DHT22;662;48.814;9.318;2023-04-24T10:47:51;17.80;38.10
1337;DHT22;662;48.814;9.318;2023-04-24T10:50:17;17.30;39.00
1337;DHT22;662;48.814;9.318;2023-04-24T10:52:49;16.90;39.70
1337;DHT22;662;48.814;9.318;2023-04-24T10:55:17;16.70;40.80
1337;DHT22;662;48.814;9.318;2023-04-24T10:58:03;16.30;40.60
1337;DHT22;662;48.814;9.318;2023-04-24T11:00:30;16.10;41.70
1337;DHT22;662;48.814;9.318;2023-04-24T11:02:56;15.90;41.70
1337;DHT22;662;48.814;9.318;2023-04-24T11:05:23;15.80;41.90
1337;DHT22;662;48.814;9.318;2023-04-24T11:08:15;15.70;42.40
1337;DHT22;662;48.814;9.318;2023-04-24T11:10:46;15.70;42.60
1337;DHT22;662;48.814;9.318;2023-04-24T11:13:16;15.60;42.30
1337;DHT22;662;48.814;9.318;2023-04-24T11:15:42;15.60;43.10
1337;DHT22;662;48.814;9.318;2023-04-24T11:18:17;15.50;43.40
1337;DHT22;662;48.814;9.318;2023-04-24T11:20:44;15.50;43.60
1337;DHT22;662;48.814;9.318;2023-04-24T11:23:12;15.60;43.80
1337;DHT22;662;48.814;9.318;2023-04-24T11:25:38;15.60;43.40
1337;DHT22;662;48.814;9.318;2023-04-24T11:28:05;15.60;43.70
1337;DHT22;662;48.814;9.318;2023-04-24T11:30:32;15.50;43.70
1337;DHT22;662;48.814;9.318;2023-04-24T11:33:05;15.50;44.00
1337;DHT22;662;48.814;9.318;2023-04-24T11:35:36;15.50;43.80
1337;DHT22;662;48.814;9.318;2023-04-24T11:38:04;15.60;44.00
1337;DHT22;662;48.814;9.318;2023-04-24T11:40:30;15.70;44.10
1337;DHT22;662;48.814;9.318;2023-04-24T11:42:56;15.80;43.50
1337;DHT22;662;48.814;9.318;2023-04-24T11:45:29;16.00;43.40
1337;DHT22;662;48.814;9.318;2023-04-24T11:47:55;16.00;42.90
1337;DHT22;662;48.814;9.318;2023-04-24T11:50:23;16.00;42.70
1337;DHT22;662;48.814;9.318;2023-04-24T11:52:51;16.10;43.50
1337;DHT22;662;48.814;9.318;2023-04-24T11:57:46;16.10;42.80
1337;DHT22;662;48.814;9.318;2023-04-24T12:00:19;16.00;42.50
1337;DHT22;662;48.814;9.318;2023-04-24T12:02:46;15.90;42.70
1337;DHT22;662;48.814;9.318;2023-04-24T12:05:24;15.80;43.20
1337;DHT22;662;48.814;9.318;2023-04-24T12:07:50;15.60;43.70
1337;DHT22;662;48.814;9.318;2023-04-24T12:10:20;15.50;44.50
1337;DHT22;662;48.814;9.318;2023-04-24T12:12:46;15.40;46.40
1337;DHT22;662;48.814;9.318;2023-04-24T12:15:12;15.40;48.60
1337;DHT22;662;48.814;9.318;2023-04-24T12:17:41;15.60;48.70
1337;DHT22;662;48.814;9.318;2023-04-24T12:20:08;15.80;47.70
1337;DHT22;662;48.814;9.318;2023-04-24T12:25:17;16.20;45.90
1337;DHT22;662;48.814;9.318;2023-04-24T12:27:51;16.30;45.40
1337;DHT22;662;48.814;9.318;2023-04-24T12:30:18;16.30;44.70
1337;DHT22;662;48.814;9.318;2023-04-24T12:32:48;16.20;43.70
1337;DHT22;662;48.814;9.318;2023-04-24T12:35:19;16.10;44.30
1337;DHT22;662;48.814;9.318;2023-04-24T12:37:46;15.90;44.60
1337;DHT22;662;48.814;9.318;2023-04-24T12:40:13;15.70;44.20
1337;DHT22;662;48.814;9.318;2023-04-24T12:42:49;15.60;44.80
1337;DHT22;662;48.814;9.318;2023-04-24T12:45:16;15.40;44.70
1337;DHT22;662;48.814;9.318;2023-04-24T12:47:43;15.40;44.90
1337;DHT22;662;48.814;9.318;2023-04-24T12:50:11;15.20;44.20
1337;DHT22;662;48.814;9.318;2023-04-24T12:52:36;15.20;44.60
1337;DHT22;662;48.814;9.318;2023-04-24T12:55:03;15.10;44.90
1337;DHT22;662;48.814;9.318;2023-04-24T12:57:30;14.90;45.00
1337;DHT22;662;48.814;9.318;2023-04-24T12:59:57;14.90;45.00
1337;DHT22;662;48.814;9.318;2023-04-24T13:02:24;14.90;45.30
1337;DHT22;662;48.814;9.318;2023-04-24T13:04:51;14.90;45.10
1337;DHT22;662;48.814;9.318;2023-04-24T13:07:17;14.90;45.10
1337;DHT22;662;48.814;9.318;2023-04-24T13:09:44;14.80;45.00
1337;DHT22;662;48.814;9.318;2023-04-24T13:12:11;14.80;45.30
1337;DHT22;662;48.814;9.318;2023-04-24T13:14:37;14.70;46.60
1337;DHT22;662;48.814;9.318;2023-04-24T13:17:03;14.60;48.30
1337;DHT22;662;48.814;9.318;2023-04-24T13:19:30;14.60;50.40
1337;DHT22;662;48.814;9.318;2023-04-24T13:22:00;14.60;51.30
1337;DHT22;662;48.814;9.318;2023-04-24T13:24:27;14.50;52.00
1337;DHT22;662;48.814;9.318;2023-04-24T13:26:53;14.50;52.80
1337;DHT22;662;48.814;9.318;2023-04-24T13:29:19;14.60;53.30
1337;DHT22;662;48.814;9.318;2023-04-24T13:31:46;14.90;53.30
1337;DHT22;662;48.814;9.318;2023-04-24T13:34:13;15.50;51.70
1337;DHT22;662;48.814;9.318;2023-04-24T13:36:38;16.20;50.80
1337;DHT22;662;48.814;9.318;2023-04-24T13:39:05;16.50;50.20
1337;DHT22;662;48.814;9.318;2023-04-24T13:41:33;16.70;50.10
1337;DHT22;662;48.814;9.318;2023-04-24T13:43:58;16.90;48.30
1337;DHT22;662;48.814;9.318;2023-04-24T13:46:24;16.90;47.70
1337;DHT22;662;48.814;9.318;2023-04-24T13:48:50;16.90;47.40
1337;DHT22;662;48.814;9.318;2023-04-24T13:51:15;16.90;47.40
1337;DHT22;662;48.814;9.318;2023-04-24T13:53:41;16.80;47.10
1337;DHT22;662;48.814;9.318;2023-04-24T13:56:07;16.60;46.70
1337;DHT22;662;48.814;9.318;2023-04-24T13:58:33;16.40;46.50
1337;DHT22;662;48.814;9.318;2023-04-24T14:00:58;16.10;46.70
1337;DHT22;662;48.814;9.318;2023-04-24T14:03:24;15.90;47.00
1337;DHT22;662;48.814;9.318;2023-04-24T14:05:50;15.80;47.50
1337;DHT22;662;48.814;9.318;2023-04-24T14:08:15;15.60;46.80
1337;DHT22;662;48.814;9.318;2023-04-24T14:10:42;15.30;49.80
1337;DHT22;662;48.814;9.318;2023-04-24T14:13:08;15.10;52.00
1337;DHT22;662;48.814;9.318;2023-04-24T14:15:35;14.90;52.80
1337;DHT22;662;48.814;9.318;2023-04-24T14:18:02;14.90;53.40
1337;DHT22;662;48.814;9.318;2023-04-24T14:20:28;14.90;53.20
1337;DHT22;662;48.814;9.318;2023-04-24T14:22:54;14.90;53.20
1337;DHT22;662;48.814;9.318;2023-04-24T14:25:20;15.00;52.60
1337;DHT22;662;48.814;9.318;2023-04-24T14:27:45;15.00;52.00
1337;DHT22;662;48.814;9.318;2023-04-24T14:30:12;15.10;52.10
1337;DHT22;662;48.814;9.318;2023-04-24T14:32:39;15.40;52.20
1337;DHT22;662;48.814;9.318;2023-04-24T14:35:06;15.60;51.20
1337;DHT22;662;48.814;9.318;2023-04-24T14:37:32;15.80;51.20
1337;DHT22;662;48.814;9.318;2023-04-24T14:39:57;16.30;50.00
1337;DHT22;662;48.814;9.318;2023-04-24T14:42:23;16.80;48.60
1337;DHT22;662;48.814;9.318;2023-04-24T14:44:49;17.00;47.70
1337;DHT22;662;48.814;9.318;2023-04-24T14:47:16;17.10;46.60
1337;DHT22;662;48.814;9.318;2023-04-24T14:49:43;17.40;46.00
1337;DHT22;662;48.814;9.318;2023-04-24T14:52:09;17.50;45.50
1337;DHT22;662;48.814;9.318;2023-04-24T14:54:35;17.60;44.80
1337;DHT22;662;48.814;9.318;2023-04-24T14:57:01;17.50;45.00
1337;DHT22;662;48.814;9.318;2023-04-24T14:59:27;17.00;44.90
1337;DHT22;662;48.814;9.318;2023-04-24T15:01:54;16.60;45.30
1337;DHT22;662;48.814;9.318;2023-04-24T15:04:24;16.30;46.80
1337;DHT22;662;48.814;9.318;2023-04-24T15:06:51;16.00;46.30
1337;DHT22;662;48.814;9.318;2023-04-24T15:09:19;15.80;46.70
1337;DHT22;662;48.814;9.318;2023-04-24T15:11:45;15.90;47.30
1337;DHT22;662;48.814;9.318;2023-04-24T15:14:14;16.10;47.70
1337;DHT22;662;48.814;9.318;2023-04-24T15:16:40;16.30;47.20
1337;DHT22;662;48.814;9.318;2023-04-24T15:19:05;16.60;47.30
1337;DHT22;662;48.814;9.318;2023-04-24T15:21:31;16.80;47.10
1337;DHT22;662;48.814;9.318;2023-04-24T15:23:57;16.90;46.60
1337;DHT22;662;48.814;9.318;2023-04-24T15:26:23;16.60;46.00
1337;DHT22;662;48.814;9.318;2023-04-24T15:28:49;16.40;46.40
1337;DHT22;662;48.814;9.318;2023-04-24T15:31:17;16.30;46.80
1337;DHT22;662;48.814;9.318;2023-04-24T15:33:43;16.10;46.50
1337;DHT22;662;48.814;9.318;2023-04-24T15:36:09;15.90;46.20
1337;DHT22;662;48.814;9.318;2023-04-24T15:38:35;15.70;46.20
1337;DHT22;662;48.814;9.318;2023-04-24T15:41:01;15.60;46.50
1337;DHT22;662;48.814;9.318;2023-04-24T15:43:26;15.40;46.80
1337;DHT22;662;48.814;9.318;2023-04-24T15:45:55;15.30;47.20
1337;DHT22;662;48.814;9.318;2023-04-24T15:48:21;15.10;47.50
1337;DHT22;662;48.814;9.318;2023-04-24T15:50:47;14.90;50.30
1337;DHT22;662;48.814;9.318;2023-04-24T15:53:12;14.60;52.10
1337;DHT22;662;48.814;9.318;2023-04-24T15:55:38;14.40;53.00
1337;DHT22;662;48.814;9.318;2023-04-24T15:58:03;14.40;54.20
1337;DHT22;662;48.814;9.318;2023-04-24T16:00:29;14.40;54.30
1337;DHT22;662;48.814;9.318;2023-04-24T16:03:01;14.40;54.70
1337;DHT22;662;48.814;9.318;2023-04-24T16:05:27;14.50;54.20
1337;DHT22;662;48.814;9.318;2023-04-24T16:07:53;14.40;53.30
1337;DHT22;662;48.814;9.318;2023-04-24T16:10:18;14.40;52.40
1337;DHT22;662;48.814;9.318;2023-04-24T16:12:44;14.30;51.90
1337;DHT22;662;48.814;9.318;2023-04-24T16:15:16;14.20;52.20
1337;DHT22;662;48.814;9.318;2023-04-24T16:17:42;14.20;52.70
1337;DHT22;662;48.814;9.318;2023-04-24T16:20:08;14.20;53.10
1337;DHT22;662;48.814;9.318;2023-04-24T16:22:34;14.20;52.50
1337;DHT22;662;48.814;9.318;2023-04-24T16:25:00;14.20;52.30